Time;durP1;ratioP1;P1;durP2;ratioP2;P2;SDS_P1;SDS_P2;PMS_P1;PMS_P2;Temp;Humidity;BMP_temperature;BMP_pressure;BME280_temperature;BME280_humidity;BME280_pressure;Samples;Min_cycle;Max_cycle;Signal;HPM_P1;HPM_P2
2022/06/05 00:02:54;;;;;;;4.72;3.13;;;;;;;;;;4816557;29;20503;-71
2022/06/05 00:05:44;;;;;;;6.40;4.40;;;;;;;;;;4767719;29;20065;-74
2022/06/05 00:08:46;;;;;;;5.13;3.40;;;;;;;;;;4816726;29;20519;-72
2022/06/05 00:11:17;;;;;;;8.55;3.25;;;;;;;;;;4786717;29;20063;-72
2022/06/05 00:13:55;;;;;;;3.55;2.60;;;;;;;;;;4816316;29;20077;-73
2022/06/05 00:16:28;;;;;;;4.80;4.10;;;;;;;;;;4816459;29;20530;-72
2022/06/05 00:18:58;;;;;;;5.93;3.08;;;;;;;;;;4816745;29;20050;-72
2022/06/05 00:21:28;;;;;;;3.88;2.05;;;;;;;;;;4800223;29;20522;-73
2022/06/05 00:23:59;;;;;;;9.07;2.38;;;;;;;;;;4816339;29;20454;-72
2022/06/05 00:26:50;;;;;;;2.38;2.03;;;;;;;;;;4816198;29;20062;-71
2022/06/05 00:29:49;;;;;;;5.60;2.15;;;;;;;;;;4818380;29;20046;-73
2022/06/05 00:32:37;;;;;;;6.22;2.60;;;;;;;;;;4819622;29;20066;-74
2022/06/05 00:35:11;;;;;;;7.55;2.80;;;;;;;;;;4819831;29;20061;-72
2022/06/05 00:38:08;;;;;;;10.40;3.20;;;;;;;;;;4819748;29;20073;-74
2022/06/05 00:41:04;;;;;;;4.80;2.90;;;;;;;;;;4818785;29;20509;-72
2022/06/05 00:43:34;;;;;;;6.97;3.22;;;;;;;;;;4803393;29;20490;-73
2022/06/05 00:46:05;;;;;;;11.90;3.37;;;;;;;;;;4820086;29;20672;-72
2022/06/05 00:48:35;;;;;;;3.40;2.83;;;;;;;;;;4819580;29;20046;-72
2022/06/05 00:51:04;;;;;;;5.25;2.58;;;;;;;;;;4819260;29;20427;-71
2022/06/05 00:53:34;;;;;;;3.22;2.28;;;;;;;;;;4819614;29;20061;-72
2022/06/05 00:56:09;;;;;;;5.57;1.98;;;;;;;;;;4820068;29;20065;-72
2022/06/05 00:58:41;;;;;;;5.47;2.22;;;;;;;;;;4819691;29;20050;-72
2022/06/05 01:01:11;;;;;;;;;;;;;;;;;;4820017;29;20050;-72
2022/06/05 01:03:40;;;;;;;3.47;1.63;;;;;;;;;;4819041;29;19929;-73
2022/06/05 01:06:13;;;;;;;3.05;1.75;;;;;;;;;;4817430;29;20058;-73
2022/06/05 01:08:42;;;;;;;;;;;;;;;;;;4801923;29;20418;-72
2022/06/05 01:11:31;;;;;;;6.47;1.67;;;;;;;;;;4819239;29;20316;-72
2022/06/05 01:14:19;;;;;;;3.05;2.03;;;;;;;;;;4818892;29;20054;-73
2022/06/05 01:17:22;;;;;;;13.90;7.78;;;;;;;;;;4818298;29;20053;-76
2022/06/05 01:20:12;;;;;;;8.80;5.53;;;;;;;;;;4801934;29;20054;-73
2022/06/05 01:22:57;;;;;;;5.73;3.40;;;;;;;;;;4818712;29;20110;-73
2022/06/05 01:25:53;;;;;;;5.00;3.55;;;;;;;;;;4818884;29;20303;-72
2022/06/05 01:28:34;;;;;;;5.88;2.08;;;;;;;;;;4818475;29;21138;-74
2022/06/05 01:31:13;;;;;;;3.10;2.53;;;;;;;;;;4803021;29;20054;-72
2022/06/05 01:33:57;;;;;;;3.67;2.35;;;;;;;;;;4818908;29;20047;-73
2022/06/05 01:36:47;;;;;;;2.20;1.77;;;;;;;;;;4818284;29;20826;-73
2022/06/05 01:39:25;;;;;;;4.53;2.30;;;;;;;;;;4818734;29;20061;-72
2022/06/05 01:42:03;;;;;;;3.30;2.10;;;;;;;;;;4802545;29;20065;-72
2022/06/05 01:44:39;;;;;;;1.90;1.70;;;;;;;;;;4818196;29;20054;-72
2022/06/05 01:47:28;;;;;;;3.63;2.50;;;;;;;;;;4818365;29;20062;-74
2022/06/05 01:50:04;;;;;;;8.10;3.40;;;;;;;;;;4818953;29;20065;-74
2022/06/05 01:52:39;;;;;;;3.22;2.03;;;;;;;;;;4818333;29;20494;-73
2022/06/05 01:55:18;;;;;;;3.20;2.40;;;;;;;;;;4818070;29;20418;-72
2022/06/05 01:57:50;;;;;;;3.58;2.35;;;;;;;;;;4818227;29;20054;-73
2022/06/05 02:00:22;;;;;;;2.92;2.13;;;;;;;;;;4818569;29;20062;-72
2022/06/05 02:02:57;;;;;;;4.65;2.30;;;;;;;;;;4818317;29;20058;-73
2022/06/05 02:05:37;;;;;;;11.60;2.90;;;;;;;;;;4818108;29;20058;-73
2022/06/05 02:08:13;;;;;;;6.35;2.08;;;;;;;;;;4818069;29;20050;-72
2022/06/05 02:10:50;;;;;;;3.65;2.10;;;;;;;;;;4818595;29;20765;-73
2022/06/05 02:13:20;;;;;;;2.92;1.55;;;;;;;;;;4818013;29;20046;-73
2022/06/05 02:15:50;;;;;;;2.78;1.90;;;;;;;;;;4818938;29;20054;-72
2022/06/05 02:18:21;;;;;;;1.98;1.60;;;;;;;;;;4817675;29;20069;-72
2022/06/05 02:20:52;;;;;;;3.60;1.65;;;;;;;;;;4818755;29;20050;-71
2022/06/05 02:23:25;;;;;;;3.28;1.70;;;;;;;;;;4818094;29;20054;-73
2022/06/05 02:25:56;;;;;;;3.70;2.08;;;;;;;;;;4817795;29;20080;-72
2022/06/05 02:28:26;;;;;;;2.95;1.55;;;;;;;;;;4818085;29;20054;-73
2022/06/05 02:31:33;;;;;;;2.35;1.90;;;;;;;;;;4817535;29;20085;-72
2022/06/05 02:34:10;;;;;;;4.85;2.20;;;;;;;;;;4817836;29;20053;-72
2022/06/05 02:37:15;;;;;;;2.35;1.63;;;;;;;;;;4818013;29;20054;-72
2022/06/05 02:40:09;;;;;;;2.13;1.88;;;;;;;;;;4816462;29;20059;-71
2022/06/05 02:42:54;;;;;;;3.45;1.73;;;;;;;;;;4817959;29;20058;-72
2022/06/05 02:45:46;;;;;;;3.88;1.75;;;;;;;;;;4818281;29;20057;-74
2022/06/05 02:48:25;;;;;;;2.17;1.50;;;;;;;;;;4818027;29;20046;-72
2022/06/05 02:51:13;;;;;;;5.07;1.80;;;;;;;;;;4817768;29;20054;-73
2022/06/05 02:53:51;;;;;;;4.93;1.65;;;;;;;;;;4817184;29;20054;-73
2022/06/05 02:56:22;;;;;;;3.70;1.55;;;;;;;;;;4818368;29;20050;-73
2022/06/05 02:58:53;;;;;;;;;;;;;;;;;;4817834;29;20081;-73
2022/06/05 03:04:12;;;;;;;2.00;1.48;;;;;;;;;;4817410;29;20376;-72
2022/06/05 03:06:46;;;;;;;2.38;1.65;;;;;;;;;;4817548;29;20058;-73
2022/06/05 03:09:16;;;;;;;2.92;1.38;;;;;;;;;;4818115;29;20168;-73
2022/06/05 03:11:46;;;;;;;3.88;1.63;;;;;;;;;;4817348;29;20054;-72
2022/06/05 03:14:16;;;;;;;1.60;1.48;;;;;;;;;;4817512;29;20061;-72
2022/06/05 03:16:46;;;;;;;3.53;1.40;;;;;;;;;;4816986;29;20529;-72
2022/06/05 03:19:16;;;;;;;1.50;1.30;;;;;;;;;;4817074;29;20517;-72
2022/06/05 03:21:46;;;;;;;1.58;1.48;;;;;;;;;;4817359;29;20058;-71
2022/06/05 03:24:16;;;;;;;2.97;1.70;;;;;;;;;;4817610;29;20059;-72
2022/06/05 03:26:45;;;;;;;2.10;1.60;;;;;;;;;;4816541;29;20069;-74
2022/06/05 03:29:15;;;;;;;5.85;1.40;;;;;;;;;;4817415;29;20050;-72
2022/06/05 03:31:45;;;;;;;2.08;1.40;;;;;;;;;;4816710;29;20495;-72
2022/06/05 03:34:16;;;;;;;1.50;1.40;;;;;;;;;;4817697;29;20058;-72
2022/06/05 03:36:47;;;;;;;3.03;1.45;;;;;;;;;;4817217;29;20047;-71
2022/06/05 03:39:17;;;;;;;4.68;1.20;;;;;;;;;;4816801;29;20562;-72
2022/06/05 03:41:47;;;;;;;5.07;1.67;;;;;;;;;;4816682;29;20414;-71
2022/06/05 03:44:17;;;;;;;5.07;1.50;;;;;;;;;;4816972;29;20050;-72
2022/06/05 03:46:48;;;;;;;1.75;1.17;;;;;;;;;;4799789;29;20061;-73
2022/06/05 03:49:18;;;;;;;1.85;1.20;;;;;;;;;;4817125;29;20062;-73
2022/06/05 03:51:48;;;;;;;2.58;1.30;;;;;;;;;;4817077;29;20059;-72
2022/06/05 03:54:18;;;;;;;2.95;1.38;;;;;;;;;;4816960;29;20705;-72
2022/06/05 03:56:48;;;;;;;3.42;1.50;;;;;;;;;;4816891;29;20058;-72
2022/06/05 03:59:18;;;;;;;1.30;1.20;;;;;;;;;;4817590;29;20069;-72
2022/06/05 04:01:48;;;;;;;2.43;1.17;;;;;;;;;;4816615;29;20054;-71
2022/06/05 04:04:18;;;;;;;3.10;1.45;;;;;;;;;;4819182;29;20099;-72
2022/06/05 04:06:48;;;;;;;2.40;1.63;;;;;;;;;;4820180;29;20062;-72
2022/06/05 04:09:18;;;;;;;1.55;1.45;;;;;;;;;;4820017;29;20399;-74
2022/06/05 04:11:48;;;;;;;4.22;1.60;;;;;;;;;;4820163;29;20057;-71
2022/06/05 04:14:18;;;;;;;11.07;1.45;;;;;;;;;;4820048;29;20518;-72
2022/06/05 04:16:48;;;;;;;3.10;1.38;;;;;;;;;;4820081;29;20050;-72
2022/06/05 04:19:17;;;;;;;1.52;1.17;;;;;;;;;;4802786;29;20062;-72
2022/06/05 04:21:47;;;;;;;2.10;1.02;;;;;;;;;;4820678;29;20057;-72
2022/06/05 04:24:17;;;;;;;6.63;1.30;;;;;;;;;;4820475;29;20065;-71
2022/06/05 04:26:47;;;;;;;1.42;1.20;;;;;;;;;;4820071;29;20047;-72
2022/06/05 04:29:17;;;;;;;2.28;1.50;;;;;;;;;;4819997;29;20055;-72
2022/06/05 04:31:49;;;;;;;1.73;1.42;;;;;;;;;;4819252;29;20054;-71
2022/06/05 04:34:22;;;;;;;3.00;1.75;;;;;;;;;;4819831;29;20047;-72
2022/06/05 04:36:52;;;;;;;4.30;1.50;;;;;;;;;;4819276;29;20474;-71
2022/06/05 04:39:22;;;;;;;1.85;1.70;;;;;;;;;;4819266;29;20066;-72
2022/06/05 04:41:53;;;;;;;1.77;1.67;;;;;;;;;;4819420;29;20054;-71
2022/06/05 04:44:23;;;;;;;6.07;1.73;;;;;;;;;;4819453;29;20051;-72
2022/06/05 04:46:54;;;;;;;5.35;1.70;;;;;;;;;;4802104;29;20491;-71
2022/06/05 04:49:24;;;;;;;;;;;;;;;;;;4819996;29;20061;-72
2022/06/05 04:51:54;;;;;;;1.88;1.33;;;;;;;;;;4819566;29;19929;-71
2022/06/05 04:54:24;;;;;;;2.05;1.42;;;;;;;;;;4818769;29;20054;-71
2022/06/05 04:56:54;;;;;;;1.98;1.40;;;;;;;;;;4819259;29;20515;-72
2022/06/05 04:59:24;;;;;;;1.83;1.50;;;;;;;;;;4819092;29;20054;-72
2022/06/05 05:01:54;;;;;;;2.42;1.48;;;;;;;;;;4819507;29;20042;-71
2022/06/05 05:04:24;;;;;;;1.80;1.40;;;;;;;;;;4819380;29;20058;-72
2022/06/05 05:06:53;;;;;;;4.85;0.93;;;;;;;;;;4819014;29;20418;-72
2022/06/05 05:09:23;;;;;;;1.45;1.35;;;;;;;;;;4818586;29;20050;-72
2022/06/05 05:11:53;;;;;;;1.60;1.13;;;;;;;;;;4819351;29;20499;-71
2022/06/05 05:14:23;;;;;;;3.10;1.20;;;;;;;;;;4819387;29;20050;-72
2022/06/05 05:16:53;;;;;;;1.60;1.10;;;;;;;;;;4819727;29;20062;-72
2022/06/05 05:19:22;;;;;;;1.20;1.00;;;;;;;;;;4819263;29;20081;-71
2022/06/05 05:21:52;;;;;;;2.15;1.30;;;;;;;;;;4818312;29;20061;-72
2022/06/05 05:24:23;;;;;;;1.33;1.23;;;;;;;;;;4819373;29;20414;-71
2022/06/05 05:26:52;;;;;;;2.15;1.50;;;;;;;;;;4818965;29;20469;-72
2022/06/05 05:29:22;;;;;;;1.77;1.23;;;;;;;;;;4818799;29;20050;-71
2022/06/05 05:31:52;;;;;;;1.85;1.20;;;;;;;;;;4819073;29;20526;-71
2022/06/05 05:34:22;;;;;;;2.45;1.15;;;;;;;;;;4818288;29;20062;-72
2022/06/05 05:36:52;;;;;;;2.22;0.98;;;;;;;;;;4818341;29;20058;-72
2022/06/05 05:42:12;;;;;;;5.72;1.40;;;;;;;;;;4818965;29;20053;-72
2022/06/05 05:44:45;;;;;;;2.08;0.90;;;;;;;;;;4818322;29;20065;-72
2022/06/05 05:47:19;;;;;;;3.33;1.17;;;;;;;;;;4802698;29;20065;-72
2022/06/05 05:49:53;;;;;;;2.17;1.15;;;;;;;;;;4802668;29;20049;-71
2022/06/05 05:52:25;;;;;;;1.10;1.00;;;;;;;;;;4818515;29;20062;-72
2022/06/05 05:54:56;;;;;;;8.15;1.25;;;;;;;;;;4818587;29;20050;-72
2022/06/05 05:57:26;;;;;;;3.28;1.30;;;;;;;;;;4801233;29;20050;-72
2022/06/05 05:59:56;;;;;;;2.65;1.17;;;;;;;;;;4817996;29;20062;-72
2022/06/05 06:02:26;;;;;;;2.58;1.15;;;;;;;;;;4818714;29;20046;-71
2022/06/05 06:04:58;;;;;;;5.75;1.15;;;;;;;;;;4818387;29;20050;-71
2022/06/05 06:07:28;;;;;;;1.38;1.08;;;;;;;;;;4817852;29;20066;-72
2022/06/05 06:09:59;;;;;;;2.80;1.48;;;;;;;;;;4818918;29;20602;-71
2022/06/05 06:12:29;;;;;;;3.45;1.23;;;;;;;;;;4817970;29;20046;-72
2022/06/05 06:14:59;;;;;;;2.50;1.60;;;;;;;;;;4818020;29;20422;-72
2022/06/05 06:17:28;;;;;;;1.20;1.00;;;;;;;;;;4818428;29;20050;-72
2022/06/05 06:19:58;;;;;;;2.85;1.00;;;;;;;;;;4818772;29;20124;-71
2022/06/05 06:22:28;;;;;;;0.93;0.90;;;;;;;;;;4818108;29;20058;-72
2022/06/05 06:24:58;;;;;;;1.77;1.05;;;;;;;;;;4818095;29;20046;-71
2022/06/05 06:27:28;;;;;;;1.48;1.17;;;;;;;;;;4816865;29;20069;-72
2022/06/05 06:29:58;;;;;;;7.35;1.02;;;;;;;;;;4818048;29;20058;-72
2022/06/05 06:32:27;;;;;;;0.98;0.90;;;;;;;;;;4801771;29;20075;-71
2022/06/05 06:34:57;;;;;;;1.42;1.33;;;;;;;;;;4818562;29;20054;-71
2022/06/05 06:37:27;;;;;;;3.70;1.40;;;;;;;;;;4801617;29;20075;-71
2022/06/05 06:39:57;;;;;;;1.75;1.10;;;;;;;;;;4818248;29;20762;-71
2022/06/05 06:42:26;;;;;;;1.70;0.95;;;;;;;;;;4817787;29;20043;-72
2022/06/05 06:44:58;;;;;;;6.65;1.45;;;;;;;;;;4800754;29;20069;-71
2022/06/05 06:47:28;;;;;;;2.80;1.50;;;;;;;;;;4817387;29;20050;-71
2022/06/05 06:49:58;;;;;;;4.65;1.02;;;;;;;;;;4817443;29;20066;-71
2022/06/05 06:52:29;;;;;;;4.28;1.17;;;;;;;;;;4817505;29;20069;-71
2022/06/05 06:54:59;;;;;;;5.80;1.73;;;;;;;;;;4818072;29;20058;-72
2022/06/05 06:57:29;;;;;;;1.73;1.60;;;;;;;;;;4817118;29;20523;-71
2022/06/05 06:59:59;;;;;;;1.48;1.20;;;;;;;;;;4801082;29;20054;-71
2022/06/05 07:02:29;;;;;;;2.00;1.23;;;;;;;;;;4817624;29;20549;-71
2022/06/05 07:04:59;;;;;;;1.90;1.00;;;;;;;;;;4817418;29;20480;-71
2022/06/05 07:07:29;;;;;;;1.20;1.10;;;;;;;;;;4817870;29;20055;-72
2022/06/05 07:09:58;;;;;;;1.98;1.17;;;;;;;;;;4817308;29;20057;-72
2022/06/05 07:12:29;;;;;;;1.98;1.20;;;;;;;;;;4817228;29;20530;-72
2022/06/05 07:14:59;;;;;;;4.82;1.48;;;;;;;;;;4817482;29;20057;-71
2022/06/05 07:17:29;;;;;;;1.25;1.13;;;;;;;;;;4815224;29;20047;-71
2022/06/05 07:19:59;;;;;;;2.70;1.40;;;;;;;;;;4813960;29;20061;-71
2022/06/05 07:22:29;;;;;;;3.30;1.40;;;;;;;;;;4812886;29;20459;-71
2022/06/05 07:24:59;;;;;;;2.25;1.30;;;;;;;;;;4815979;29;20070;-72
2022/06/05 07:27:29;;;;;;;2.47;1.23;;;;;;;;;;4816891;29;20046;-71
2022/06/05 07:30:00;;;;;;;1.63;1.25;;;;;;;;;;4801324;29;20061;-71
2022/06/05 07:32:29;;;;;;;1.85;1.20;;;;;;;;;;4817615;29;20053;-71
2022/06/05 07:35:00;;;;;;;1.80;1.23;;;;;;;;;;4816692;29;20982;-70
2022/06/05 07:37:30;;;;;;;2.23;1.20;;;;;;;;;;4817961;29;20050;-71
2022/06/05 07:40:00;;;;;;;3.80;1.20;;;;;;;;;;4821306;29;20069;-71
2022/06/05 07:42:30;;;;;;;1.63;1.20;;;;;;;;;;4820841;29;20083;-72
2022/06/05 07:45:01;;;;;;;3.42;1.25;;;;;;;;;;4804611;29;20506;-71
2022/06/05 07:47:31;;;;;;;3.37;1.23;;;;;;;;;;4804562;29;20054;-72
2022/06/05 07:50:01;;;;;;;1.33;1.10;;;;;;;;;;4820171;29;20053;-72
2022/06/05 07:55:20;;;;;;;1.13;1.10;;;;;;;;;;4820546;29;20511;-72
2022/06/05 07:57:50;;;;;;;1.40;0.93;;;;;;;;;;4820286;29;20077;-72
2022/06/05 08:00:21;;;;;;;2.15;1.35;;;;;;;;;;4820582;29;20059;-73
2022/06/05 08:02:51;;;;;;;2.70;1.58;;;;;;;;;;4820189;29;20066;-72
2022/06/05 08:05:21;;;;;;;1.73;1.17;;;;;;;;;;4819977;29;20058;-72
2022/06/05 08:07:52;;;;;;;3.08;1.40;;;;;;;;;;4820551;29;20065;-72
2022/06/05 08:10:21;;;;;;;1.40;1.30;;;;;;;;;;4819945;29;20529;-73
2022/06/05 08:12:51;;;;;;;3.50;1.27;;;;;;;;;;4819736;29;20058;-73
2022/06/05 08:15:21;;;;;;;2.65;1.20;;;;;;;;;;4819996;29;20054;-72
2022/06/05 08:17:51;;;;;;;1.65;1.10;;;;;;;;;;4820674;29;20046;-72
2022/06/05 08:20:21;;;;;;;2.13;1.77;;;;;;;;;;4820210;29;20053;-72
2022/06/05 08:22:52;;;;;;;1.23;1.05;;;;;;;;;;4819805;29;20080;-72
2022/06/05 08:25:21;;;;;;;6.00;1.20;;;;;;;;;;4819586;29;20412;-72
2022/06/05 08:27:52;;;;;;;1.70;1.20;;;;;;;;;;4819864;29;20050;-73
2022/06/05 08:30:21;;;;;;;1.98;1.30;;;;;;;;;;4820382;29;20050;-72
2022/06/05 08:32:52;;;;;;;2.25;1.17;;;;;;;;;;4819920;29;20773;-72
2022/06/05 08:35:21;;;;;;;2.45;1.27;;;;;;;;;;4819652;29;20069;-72
2022/06/05 08:43:59;;;;;;;2.38;1.30;;;;;;;;;;4819976;29;20053;-72
2022/06/05 08:46:38;;;;;;;2.17;1.10;;;;;;;;;;4819467;29;20054;-71
2022/06/05 08:49:15;;;;;;;1.27;1.10;;;;;;;;;;4819413;29;20047;-72
2022/06/05 08:52:11;;;;;;;2.83;1.40;;;;;;;;;;4819570;29;20062;-72
2022/06/05 08:54:57;;;;;;;2.08;1.08;;;;;;;;;;4794295;29;20066;-72
2022/06/05 08:57:35;;;;;;;1.90;1.10;;;;;;;;;;4819505;29;20486;-72
2022/06/05 09:00:19;;;;;;;9.15;1.30;;;;;;;;;;4819587;29;20054;-72
2022/06/05 09:03:01;;;;;;;4.72;1.45;;;;;;;;;;4819319;29;20053;-72
2022/06/05 09:05:37;;;;;;;1.95;1.13;;;;;;;;;;4819037;29;20061;-72
2022/06/05 09:08:17;;;;;;;2.83;1.25;;;;;;;;;;4819752;29;20050;-72
2022/06/05 09:10:57;;;;;;;1.20;1.00;;;;;;;;;;4819504;29;20916;-72
2022/06/05 09:13:42;;;;;;;1.30;1.20;;;;;;;;;;4819733;29;20514;-72
2022/06/05 09:16:22;;;;;;;1.63;1.13;;;;;;;;;;4819842;29;20046;-72
2022/06/05 09:18:53;;;;;;;1.13;1.02;;;;;;;;;;4819283;29;20054;-71
2022/06/05 09:21:42;;;;;;;5.55;1.35;;;;;;;;;;4803354;29;20046;-72
2022/06/05 09:24:16;;;;;;;2.28;1.45;;;;;;;;;;4819156;29;20058;-73
2022/06/05 09:27:00;;;;;;;2.58;1.23;;;;;;;;;;4818766;29;20058;-72
2022/06/05 09:29:44;;;;;;;1.13;1.10;;;;;;;;;;4818547;29;20061;-72
2022/06/05 09:32:51;;;;;;;1.48;1.38;;;;;;;;;;4818691;29;20069;-72
2022/06/05 09:35:25;;;;;;;2.08;1.20;;;;;;;;;;4818865;29;20055;-72
2022/06/05 09:37:58;;;;;;;2.47;1.10;;;;;;;;;;4819124;29;20054;-72
2022/06/05 09:40:35;;;;;;;1.33;1.20;;;;;;;;;;4818867;29;20066;-72
2022/06/05 09:43:20;;;;;;;1.38;1.27;;;;;;;;;;4803244;29;20077;-72
2022/06/05 09:46:14;;;;;;;1.38;1.17;;;;;;;;;;4818745;29;20055;-73
2022/06/05 09:49:06;;;;;;;2.13;1.40;;;;;;;;;;4802728;29;20054;-71
2022/06/05 09:51:40;;;;;;;1.85;1.15;;;;;;;;;;4803234;29;20062;-72
2022/06/05 09:54:19;;;;;;;1.77;0.90;;;;;;;;;;4786558;29;20066;-72
2022/06/05 10:00:04;;;;;;;1.48;1.10;;;;;;;;;;4818606;29;20046;-73
2022/06/05 10:02:36;;;;;;;6.15;1.52;;;;;;;;;;4800221;29;20106;-73
2022/06/05 10:05:34;;;;;;;3.08;1.30;;;;;;;;;;4817872;29;20054;-72
2022/06/05 10:08:14;;;;;;;2.95;1.05;;;;;;;;;;4817616;29;20062;-71
2022/06/05 10:10:46;;;;;;;1.23;1.10;;;;;;;;;;4818991;29;20046;-72
2022/06/05 10:13:23;;;;;;;2.58;0.98;;;;;;;;;;4818494;29;20054;-72
2022/06/05 10:16:07;;;;;;;4.55;1.20;;;;;;;;;;4818821;29;20061;-72
2022/06/05 10:19:01;;;;;;;4.45;1.15;;;;;;;;;;4818373;29;20419;-71
2022/06/05 10:21:41;;;;;;;4.03;1.20;;;;;;;;;;4801714;29;20061;-72
2022/06/05 10:24:43;;;;;;;2.72;1.13;;;;;;;;;;4817785;29;20422;-72
2022/06/05 10:27:15;;;;;;;6.10;4.60;;;;;;;;;;4817970;29;20054;-72
2022/06/05 10:29:53;;;;;;;3.78;1.65;;;;;;;;;;4818013;29;20059;-72
2022/06/05 10:32:45;;;;;;;1.45;1.20;;;;;;;;;;4817895;29;20778;-73
2022/06/05 10:35:39;;;;;;;4.45;1.23;;;;;;;;;;4818092;29;20085;-72
2022/06/05 10:38:30;;;;;;;4.32;1.60;;;;;;;;;;4801687;29;20054;-72
2022/06/05 10:41:16;;;;;;;3.25;1.52;;;;;;;;;;4782819;29;20074;-72
2022/06/05 10:44:04;;;;;;;1.98;1.48;;;;;;;;;;4817892;29;20058;-73
2022/06/05 10:46:37;;;;;;;1.35;1.25;;;;;;;;;;4817686;29;20061;-72
2022/06/05 10:49:18;;;;;;;5.28;1.40;;;;;;;;;;4817845;29;20077;-72
2022/06/05 10:52:02;;;;;;;2.13;1.33;;;;;;;;;;4800462;29;20058;-73
2022/06/05 10:54:51;;;;;;;3.78;1.35;;;;;;;;;;4817714;29;20070;-72
2022/06/05 10:57:34;;;;;;;3.08;1.42;;;;;;;;;;4817954;29;20081;-72
2022/06/05 11:00:20;;;;;;;3.55;1.48;;;;;;;;;;4817479;29;20050;-72
2022/06/05 11:03:12;;;;;;;1.83;1.70;;;;;;;;;;4817711;29;20517;-71
2022/06/05 11:06:05;;;;;;;7.05;3.58;;;;;;;;;;4817697;29;20069;-72
2022/06/05 11:08:59;;;;;;;5.82;1.60;;;;;;;;;;4807849;29;20424;-73
2022/06/05 11:14:40;;;;;;;1.50;1.35;;;;;;;;;;4817767;29;20061;-73
2022/06/05 11:17:42;;;;;;;2.35;1.73;;;;;;;;;;4817303;29;20054;-73
2022/06/05 11:20:19;;;;;;;6.90;1.70;;;;;;;;;;4778138;29;20074;-73
2022/06/05 11:23:03;;;;;;;2.17;1.83;;;;;;;;;;4817332;29;20050;-73
2022/06/05 11:26:09;;;;;;;3.88;3.30;;;;;;;;;;4817213;29;20065;-72
2022/06/05 11:29:04;;;;;;;6.50;2.28;;;;;;;;;;4742239;30;20421;-73
2022/06/05 11:31:43;;;;;;;4.95;2.35;;;;;;;;;;4817449;29;20054;-72
2022/06/05 11:34:31;;;;;;;4.63;3.00;;;;;;;;;;4801176;29;20105;-73
2022/06/05 11:37:38;;;;;;;5.55;3.40;;;;;;;;;;4817690;29;20050;-73
2022/06/05 11:40:16;;;;;;;6.43;3.28;;;;;;;;;;4817199;29;20053;-73
2022/06/05 11:43:11;;;;;;;9.35;3.25;;;;;;;;;;4801020;29;20062;-73
2022/06/05 11:46:06;;;;;;;9.32;3.35;;;;;;;;;;4816631;29;20648;-71
2022/06/05 11:48:41;;;;;;;6.40;3.25;;;;;;;;;;4817301;29;20529;-72
2022/06/05 11:51:38;;;;;;;6.90;3.63;;;;;;;;;;4816922;29;20062;-72
2022/06/05 11:54:08;;;;;;;7.82;3.05;;;;;;;;;;4816821;29;20526;-73
2022/06/05 11:56:57;;;;;;;4.35;3.15;;;;;;;;;;4817279;29;20050;-77
2022/06/05 11:59:39;;;;;;;3.78;2.95;;;;;;;;;;4816936;29;20511;-73
2022/06/05 12:02:09;;;;;;;5.50;2.80;;;;;;;;;;4816645;29;20046;-74
2022/06/05 12:04:57;;;;;;;3.25;2.72;;;;;;;;;;4816849;29;20055;-73
2022/06/05 12:07:28;;;;;;;4.90;3.00;;;;;;;;;;4797314;29;20523;-73
2022/06/05 12:10:10;;;;;;;;;;;;;;;;;;4799080;29;20082;-73
2022/06/05 12:12:48;;;;;;;3.78;2.90;;;;;;;;;;4798584;29;19925;-73
2022/06/05 12:16:03;;;;;;;3.72;2.78;;;;;;;;;;4798238;29;20051;-73
2022/06/05 12:18:49;;;;;;;3.55;3.08;;;;;;;;;;4796601;29;20070;-74
2022/06/05 12:21:29;;;;;;;5.07;3.47;;;;;;;;;;4798538;29;20066;-75
2022/06/05 12:24:32;;;;;;;5.55;4.07;;;;;;;;;;4799029;29;20046;-72
2022/06/05 12:27:12;;;;;;;3.45;3.03;;;;;;;;;;4800320;29;20066;-74
2022/06/05 12:29:50;;;;;;;18.10;8.43;;;;;;;;;;4801113;29;20055;-73
2022/06/05 12:32:35;;;;;;;4.90;4.13;;;;;;;;;;4801911;29;20081;-73
2022/06/05 12:35:16;;;;;;;9.52;5.90;;;;;;;;;;4801922;29;20071;-73
2022/06/05 12:38:09;;;;;;;14.13;9.75;;;;;;;;;;4802113;29;20059;-74
2022/06/05 12:40:46;;;;;;;9.10;6.68;;;;;;;;;;4801504;29;20070;-74
2022/06/05 12:43:30;;;;;;;7.25;3.40;;;;;;;;;;4801508;29;20051;-73
2022/06/05 12:46:36;;;;;;;4.45;2.72;;;;;;;;;;4801605;29;20062;-73
2022/06/05 12:49:18;;;;;;;4.13;2.78;;;;;;;;;;4797576;29;20550;-74
2022/06/05 12:52:13;;;;;;;4.03;3.03;;;;;;;;;;4801614;29;20507;-73
2022/06/05 12:54:55;;;;;;;4.90;3.22;;;;;;;;;;4800258;29;20047;-72
2022/06/05 12:57:58;;;;;;;5.15;3.58;;;;;;;;;;4801547;29;20415;-75
2022/06/05 13:00:54;;;;;;;6.88;4.97;;;;;;;;;;4800432;29;20055;-72
2022/06/05 13:03:53;;;;;;;8.98;6.07;;;;;;;;;;4801508;29;20061;-72
2022/06/05 13:06:27;;;;;;;8.40;6.68;;;;;;;;;;4809246;29;20078;-73
2022/06/05 13:09:03;;;;;;;8.07;6.00;;;;;;;;;;4819507;29;20097;-73
2022/06/05 13:11:49;;;;;;;6.28;4.88;;;;;;;;;;4818716;29;20058;-73
2022/06/05 13:14:33;;;;;;;7.75;4.22;;;;;;;;;;4819522;29;20058;-73
2022/06/05 13:17:33;;;;;;;5.63;4.70;;;;;;;;;;4820103;29;20061;-73
2022/06/05 13:20:28;;;;;;;4.30;3.63;;;;;;;;;;4819494;29;20054;-74
2022/06/05 13:23:16;;;;;;;3.55;3.15;;;;;;;;;;4819300;29;20050;-72
2022/06/05 13:26:07;;;;;;;3.50;2.97;;;;;;;;;;4819631;29;20057;-74
2022/06/05 13:28:48;;;;;;;5.70;3.55;;;;;;;;;;4819676;29;20055;-74
2022/06/05 13:31:41;;;;;;;28.42;21.20;;;;;;;;;;4819675;29;20050;-74
2022/06/05 13:34:38;;;;;;;8.48;6.95;;;;;;;;;;4819002;29;20685;-73
2022/06/05 13:37:14;;;;;;;15.73;12.50;;;;;;;;;;4818098;29;20085;-72
2022/06/05 13:39:54;;;;;;;11.45;7.85;;;;;;;;;;4818658;29;20065;-72
2022/06/05 13:42:26;;;;;;;;;;;;;;;;;;4820230;29;20161;-73
2022/06/05 13:45:00;;;;;;;6.97;4.00;;;;;;;;;;4819543;29;19931;-73
2022/06/05 13:47:46;;;;;;;6.15;3.97;;;;;;;;;;4819022;29;20061;-73
2022/06/05 13:50:34;;;;;;;9.18;3.13;;;;;;;;;;4802087;29;20161;-73
2022/06/05 13:53:40;;;;;;;4.20;3.67;;;;;;;;;;4818947;29;20061;-73
2022/06/05 13:56:29;;;;;;;13.35;9.63;;;;;;;;;;4818475;29;20410;-77
2022/06/05 13:59:20;;;;;;;11.50;7.20;;;;;;;;;;4818627;29;20054;-75
2022/06/05 14:02:05;;;;;;;5.93;4.47;;;;;;;;;;4819127;29;20058;-72
2022/06/05 14:05:13;;;;;;;5.63;4.32;;;;;;;;;;4818369;29;20058;-73
2022/06/05 14:07:52;;;;;;;15.30;10.82;;;;;;;;;;4793981;29;20393;-74
2022/06/05 14:10:30;;;;;;;8.43;5.80;;;;;;;;;;4800837;29;20061;-76
2022/06/05 14:13:14;;;;;;;10.57;6.53;;;;;;;;;;4800076;29;20062;-75
2022/06/05 14:15:50;;;;;;;7.00;5.40;;;;;;;;;;4800651;29;20061;-74
2022/06/05 14:18:27;;;;;;;10.23;4.97;;;;;;;;;;4800586;29;20278;-74
2022/06/05 14:21:01;;;;;;;7.93;4.75;;;;;;;;;;4800404;29;20388;-74
2022/06/05 14:23:32;;;;;;;5.90;4.20;;;;;;;;;;4799861;29;20062;-72
2022/06/05 14:26:04;;;;;;;;;;;;;;;;;;4800904;29;20054;-72
2022/06/05 14:28:41;;;;;;;10.77;6.50;;;;;;;;;;4800473;29;19929;-75
2022/06/05 14:31:21;;;;;;;6.70;5.40;;;;;;;;;;4800640;29;20058;-75
2022/06/05 14:34:01;;;;;;;7.90;6.43;;;;;;;;;;4800363;29;20050;-74
2022/06/05 14:36:42;;;;;;;6.95;6.18;;;;;;;;;;4800906;29;20538;-73
2022/06/05 14:39:24;;;;;;;7.60;5.50;;;;;;;;;;4800113;29;20062;-74
2022/06/05 14:42:35;;;;;;;10.95;6.32;;;;;;;;;;4799913;29;20070;-73
2022/06/05 14:45:27;;;;;;;6.73;5.17;;;;;;;;;;4800092;29;20062;-73
2022/06/05 14:48:15;;;;;;;7.38;6.28;;;;;;;;;;4793317;29;20234;-73
2022/06/05 14:51:10;;;;;;;7.97;5.72;;;;;;;;;;4799657;29;20054;-72
2022/06/05 14:53:50;;;;;;;7.93;5.63;;;;;;;;;;4800148;29;20058;-73
2022/06/05 14:59:38;;;;;;;7.88;5.82;;;;;;;;;;4800295;29;20047;-74
2022/06/05 15:02:30;;;;;;;9.95;6.40;;;;;;;;;;4799462;29;20066;-75
2022/06/05 15:05:21;;;;;;;8.43;5.50;;;;;;;;;;4799084;29;20062;-74
2022/06/05 15:08:20;;;;;;;9.85;6.38;;;;;;;;;;4799372;29;20066;-73
2022/06/05 15:10:55;;;;;;;18.02;8.65;;;;;;;;;;4799696;29;20584;-74
2022/06/05 15:13:31;;;;;;;31.38;25.65;;;;;;;;;;4798788;29;20050;-73
2022/06/05 15:16:41;;;;;;;33.60;18.13;;;;;;;;;;4799448;29;20046;-75
2022/06/05 15:19:24;;;;;;;30.02;18.15;;;;;;;;;;4799698;29;20055;-73
2022/06/05 15:22:46;;;;;;;25.60;18.25;;;;;;;;;;4798954;29;20050;-73
2022/06/05 15:25:43;;;;;;;19.70;14.20;;;;;;;;;;4760539;29;20566;-73
2022/06/05 15:28:28;;;;;;;20.25;14.30;;;;;;;;;;4793511;29;20070;-74
2022/06/05 15:31:24;;;;;;;20.48;11.40;;;;;;;;;;4799192;29;20415;-74
2022/06/05 15:34:07;;;;;;;20.90;14.52;;;;;;;;;;4799070;29;20055;-74
2022/06/05 15:37:01;;;;;;;15.90;9.75;;;;;;;;;;4798692;29;20073;-74
2022/06/05 15:39:31;;;;;;;16.15;11.18;;;;;;;;;;4798296;29;20533;-74
2022/06/05 15:42:20;;;;;;;19.75;14.32;;;;;;;;;;4798427;29;20097;-76
2022/06/05 15:45:05;;;;;;;47.03;32.95;;;;;;;;;;4799370;29;20069;-75
2022/06/05 15:48:02;;;;;;;36.33;23.88;;;;;;;;;;4799135;29;20078;-74
2022/06/05 15:50:57;;;;;;;48.28;30.88;;;;;;;;;;4790566;29;20074;-74
2022/06/05 15:53:39;;;;;;;30.17;19.88;;;;;;;;;;4798970;29;20062;-73
2022/06/05 15:56:41;;;;;;;38.05;22.23;;;;;;;;;;4798947;29;20055;-76
2022/06/05 15:59:38;;;;;;;28.15;19.13;;;;;;;;;;4799059;29;20067;-74
2022/06/05 16:02:24;;;;;;;30.92;19.60;;;;;;;;;;4803162;29;20043;-74
2022/06/05 16:05:34;;;;;;;33.58;20.88;;;;;;;;;;4802726;29;20546;-74
2022/06/05 16:08:12;;;;;;;33.70;20.70;;;;;;;;;;4802214;29;20058;-75
2022/06/05 16:10:52;;;;;;;19.17;14.57;;;;;;;;;;4802418;29;20065;-74
2022/06/05 16:13:23;;;;;;;5.90;5.30;;;;;;;;;;4802268;29;20531;-75
2022/06/05 16:16:20;;;;;;;9.32;6.85;;;;;;;;;;4802378;29;20434;-74
2022/06/05 16:19:06;;;;;;;6.00;5.40;;;;;;;;;;4802570;29;20050;-76